sensor_id;sensor_type;location;lat;lon;timestamp;pressure;altitude;pressure_sealevel;temperature
79148;BMP280;68562;51.600;6.524;2023-12-28T00:00:00;1008.3;;;13.3
79148;BMP280;68562;51.600;6.524;2023-12-28T00:05:00;1008.4;;;13.5
79148;BMP280;68562;51.600;6.524;2023-12-28T00:10:00;1008.5;;;13.6
79148;BMP280;68562;51.600;6.524;2023-12-28T00:15:00;1008.4;;;13.7
79148;BMP280;68562;51.600;6.524;2023-12-28T00:20:00;1008.5;;;13.8
79148;BMP280;68562;51.600;6.524;2023-12-28T00:25:01;1008.6;;;13.8
79148;BMP280;68562;51.600;6.524;2023-12-28T00:30:00;1008.4;;;13.8
79148;BMP280;68562;51.600;6.524;2023-12-28T00:35:00;1008.4;;;13.6
79148;BMP280;68562;51.600;6.524;2023-12-28T00:40:01;1008.4;;;13.7
79148;BMP280;68562;51.600;6.524;2023-12-28T00:45:00;1008.6;;;13.6
79148;BMP280;68562;51.600;6.524;2023-12-28T00:50:00;1008.6;;;13.6
79148;BMP280;68562;51.600;6.524;2023-12-28T00:55:00;1008.7;;;13.6
79148;BMP280;68562;51.600;6.524;2023-12-28T01:00:00;1008.6;;;13.7
79148;BMP280;68562;51.600;6.524;2023-12-28T01:05:00;1008.7;;;13.6
79148;BMP280;68562;51.600;6.524;2023-12-28T01:10:01;1008.7;;;13.7
79148;BMP280;68562;51.600;6.524;2023-12-28T01:15:00;1008.7;;;13.7
79148;BMP280;68562;51.600;6.524;2023-12-28T01:20:00;1008.8;;;13.8
79148;BMP280;68562;51.600;6.524;2023-12-28T01:25:00;1008.9;;;13.8
79148;BMP280;68562;51.600;6.524;2023-12-28T01:30:00;1009.0;;;13.7
79148;BMP280;68562;51.600;6.524;2023-12-28T01:35:00;1008.9;;;13.9
79148;BMP280;68562;51.600;6.524;2023-12-28T01:40:00;1008.9;;;13.8
79148;BMP280;68562;51.600;6.524;2023-12-28T01:45:00;1009.0;;;14.0
79148;BMP280;68562;51.600;6.524;2023-12-28T01:50:02;1009.1;;;13.9
79148;BMP280;68562;51.600;6.524;2023-12-28T01:55:01;1009.2;;;14.1
79148;BMP280;68562;51.600;6.524;2023-12-28T02:00:00;1009.2;;;13.9
79148;BMP280;68562;51.600;6.524;2023-12-28T02:05:00;1009.3;;;13.9
79148;BMP280;68562;51.600;6.524;2023-12-28T02:10:00;1009.2;;;13.9
79148;BMP280;68562;51.600;6.524;2023-12-28T02:15:00;1009.4;;;14.0
79148;BMP280;68562;51.600;6.524;2023-12-28T02:20:00;1009.3;;;14.1
79148;BMP280;68562;51.600;6.524;2023-12-28T02:25:08;1009.3;;;14.1
79148;BMP280;68562;51.600;6.524;2023-12-28T02:30:01;1009.3;;;14.1
79148;BMP280;68562;51.600;6.524;2023-12-28T02:35:16;1009.4;;;14.0
79148;BMP280;68562;51.600;6.524;2023-12-28T02:40:01;1009.4;;;14.0
79148;BMP280;68562;51.600;6.524;2023-12-28T02:45:00;1009.3;;;14.0
79148;BMP280;68562;51.600;6.524;2023-12-28T02:50:00;1009.5;;;14.0
79148;BMP280;68562;51.600;6.524;2023-12-28T02:55:01;1009.3;;;14.0
79148;BMP280;68562;51.600;6.524;2023-12-28T03:00:00;1009.3;;;14.1
79148;BMP280;68562;51.600;6.524;2023-12-28T03:05:00;1009.2;;;14.1
79148;BMP280;68562;51.600;6.524;2023-12-28T03:10:00;1009.0;;;13.9
79148;BMP280;68562;51.600;6.524;2023-12-28T03:15:00;1009.2;;;14.0
79148;BMP280;68562;51.600;6.524;2023-12-28T03:20:01;1009.1;;;14.0
79148;BMP280;68562;51.600;6.524;2023-12-28T03:25:00;1009.1;;;14.0
79148;BMP280;68562;51.600;6.524;2023-12-28T03:30:00;1009.1;;;14.0
79148;BMP280;68562;51.600;6.524;2023-12-28T03:35:01;1009.2;;;14.1
79148;BMP280;68562;51.600;6.524;2023-12-28T03:40:01;1009.0;;;14.1
79148;BMP280;68562;51.600;6.524;2023-12-28T03:45:00;1009.0;;;14.1
79148;BMP280;68562;51.600;6.524;2023-12-28T03:50:00;1008.9;;;14.0
79148;BMP280;68562;51.600;6.524;2023-12-28T03:55:00;1009.1;;;13.9
79148;BMP280;68562;51.600;6.524;2023-12-28T04:00:00;1009.0;;;13.9
79148;BMP280;68562;51.600;6.524;2023-12-28T04:05:02;1009.0;;;14.0
79148;BMP280;68562;51.600;6.524;2023-12-28T04:10:00;1009.2;;;13.9
79148;BMP280;68562;51.600;6.524;2023-12-28T04:15:00;1009.1;;;13.9
79148;BMP280;68562;51.600;6.524;2023-12-28T04:20:03;1009.1;;;13.8
79148;BMP280;68562;51.600;6.524;2023-12-28T04:25:00;1009.2;;;13.9
79148;BMP280;68562;51.600;6.524;2023-12-28T04:30:00;1009.2;;;13.8
79148;BMP280;68562;51.600;6.524;2023-12-28T04:35:01;1009.1;;;13.6
79148;BMP280;68562;51.600;6.524;2023-12-28T04:40:00;1009.2;;;13.8
79148;BMP280;68562;51.600;6.524;2023-12-28T04:45:00;1009.3;;;13.8
79148;BMP280;68562;51.600;6.524;2023-12-28T04:50:00;1009.1;;;13.9
79148;BMP280;68562;51.600;6.524;2023-12-28T04:55:00;1009.1;;;13.9
79148;BMP280;68562;51.600;6.524;2023-12-28T05:00:00;1009.1;;;13.8
79148;BMP280;68562;51.600;6.524;2023-12-28T05:05:00;1009.1;;;13.9
79148;BMP280;68562;51.600;6.524;2023-12-28T05:10:00;1009.1;;;13.9
79148;BMP280;68562;51.600;6.524;2023-12-28T05:15:00;1009.0;;;13.9
79148;BMP280;68562;51.600;6.524;2023-12-28T05:20:01;1009.2;;;13.8
79148;BMP280;68562;51.600;6.524;2023-12-28T05:25:00;1009.3;;;13.9
79148;BMP280;68562;51.600;6.524;2023-12-28T05:30:00;1009.4;;;14.0
79148;BMP280;68562;51.600;6.524;2023-12-28T05:35:02;1009.3;;;14.0
79148;BMP280;68562;51.600;6.524;2023-12-28T05:40:00;1009.4;;;14.0
79148;BMP280;68562;51.600;6.524;2023-12-28T05:45:00;1009.5;;;14.0
79148;BMP280;68562;51.600;6.524;2023-12-28T05:50:00;1009.5;;;14.0
79148;BMP280;68562;51.600;6.524;2023-12-28T05:55:00;1009.5;;;14.0
79148;BMP280;68562;51.600;6.524;2023-12-28T06:00:00;1009.5;;;13.9
79148;BMP280;68562;51.600;6.524;2023-12-28T06:05:01;1009.7;;;14.0
79148;BMP280;68562;51.600;6.524;2023-12-28T06:10:00;1009.5;;;14.0
79148;BMP280;68562;51.600;6.524;2023-12-28T06:15:00;1009.6;;;13.9
79148;BMP280;68562;51.600;6.524;2023-12-28T06:20:00;1009.4;;;13.8
79148;BMP280;68562;51.600;6.524;2023-12-28T06:25:00;1009.5;;;14.0
79148;BMP280;68562;51.600;6.524;2023-12-28T06:30:00;1009.6;;;13.9
79148;BMP280;68562;51.600;6.524;2023-12-28T06:35:00;1009.7;;;13.9
79148;BMP280;68562;51.600;6.524;2023-12-28T06:40:00;1009.8;;;13.8
79148;BMP280;68562;51.600;6.524;2023-12-28T06:45:00;1009.8;;;13.9
79148;BMP280;68562;51.600;6.524;2023-12-28T06:50:00;1009.8;;;14.0
79148;BMP280;68562;51.600;6.524;2023-12-28T06:55:00;1009.8;;;14.0
79148;BMP280;68562;51.600;6.524;2023-12-28T07:00:00;1009.8;;;14.1
79148;BMP280;68562;51.600;6.524;2023-12-28T07:05:01;1009.9;;;14.2
79148;BMP280;68562;51.600;6.524;2023-12-28T07:10:00;1009.8;;;14.2
79148;BMP280;68562;51.600;6.524;2023-12-28T07:15:00;1009.8;;;14.2
79148;BMP280;68562;51.600;6.524;2023-12-28T07:20:00;1010.0;;;14.2
79148;BMP280;68562;51.600;6.524;2023-12-28T07:25:00;1010.0;;;14.1
79148;BMP280;68562;51.600;6.524;2023-12-28T07:30:00;1010.1;;;14.1
79148;BMP280;68562;51.600;6.524;2023-12-28T07:35:02;1010.0;;;14.0
79148;BMP280;68562;51.600;6.524;2023-12-28T07:40:00;1010.0;;;14.0
79148;BMP280;68562;51.600;6.524;2023-12-28T07:45:00;1010.1;;;14.1
79148;BMP280;68562;51.600;6.524;2023-12-28T07:55:01;1010.3;;;14.1
79148;BMP280;68562;51.600;6.524;2023-12-28T08:00:00;1010.3;;;14.2
79148;BMP280;68562;51.600;6.524;2023-12-28T08:05:00;1010.4;;;14.3
79148;BMP280;68562;51.600;6.524;2023-12-28T08:10:01;1010.5;;;14.2
79148;BMP280;68562;51.600;6.524;2023-12-28T08:15:00;1010.5;;;14.3
79148;BMP280;68562;51.600;6.524;2023-12-28T08:20:00;1010.6;;;14.4
79148;BMP280;68562;51.600;6.524;2023-12-28T08:25:00;1010.7;;;14.3
79148;BMP280;68562;51.600;6.524;2023-12-28T08:30:00;1010.8;;;14.3
79148;BMP280;68562;51.600;6.524;2023-12-28T08:35:00;1010.7;;;14.3
79148;BMP280;68562;51.600;6.524;2023-12-28T08:40:00;1010.7;;;14.4
79148;BMP280;68562;51.600;6.524;2023-12-28T08:45:00;1010.8;;;14.4
79148;BMP280;68562;51.600;6.524;2023-12-28T08:50:00;1010.8;;;14.3
79148;BMP280;68562;51.600;6.524;2023-12-28T08:55:00;1010.9;;;14.4
79148;BMP280;68562;51.600;6.524;2023-12-28T09:00:00;1011.0;;;14.3
79148;BMP280;68562;51.600;6.524;2023-12-28T09:05:00;1010.8;;;14.3
79148;BMP280;68562;51.600;6.524;2023-12-28T09:10:00;1010.8;;;14.3
79148;BMP280;68562;51.600;6.524;2023-12-28T09:15:02;1010.9;;;14.2
79148;BMP280;68562;51.600;6.524;2023-12-28T09:20:00;1011.0;;;14.4
79148;BMP280;68562;51.600;6.524;2023-12-28T09:25:00;1011.0;;;14.5
79148;BMP280;68562;51.600;6.524;2023-12-28T09:30:00;1011.0;;;14.6
79148;BMP280;68562;51.600;6.524;2023-12-28T09:35:00;1011.0;;;14.5
79148;BMP280;68562;51.600;6.524;2023-12-28T09:40:00;1011.1;;;14.4
79148;BMP280;68562;51.600;6.524;2023-12-28T09:45:00;1011.2;;;14.5
79148;BMP280;68562;51.600;6.524;2023-12-28T09:50:00;1011.2;;;14.4
79148;BMP280;68562;51.600;6.524;2023-12-28T09:55:00;1011.3;;;14.4
79148;BMP280;68562;51.600;6.524;2023-12-28T10:00:01;1011.3;;;14.5
79148;BMP280;68562;51.600;6.524;2023-12-28T10:05:00;1011.2;;;14.2
79148;BMP280;68562;51.600;6.524;2023-12-28T10:10:00;1011.2;;;14.4
79148;BMP280;68562;51.600;6.524;2023-12-28T10:15:00;1011.1;;;14.3
79148;BMP280;68562;51.600;6.524;2023-12-28T10:20:01;1011.2;;;14.4
79148;BMP280;68562;51.600;6.524;2023-12-28T10:25:02;1011.2;;;14.3
79148;BMP280;68562;51.600;6.524;2023-12-28T10:30:03;1011.1;;;14.4
79148;BMP280;68562;51.600;6.524;2023-12-28T10:35:00;1011.1;;;14.6
79148;BMP280;68562;51.600;6.524;2023-12-28T10:40:02;1011.1;;;14.7
79148;BMP280;68562;51.600;6.524;2023-12-28T10:45:04;1011.2;;;14.8
79148;BMP280;68562;51.600;6.524;2023-12-28T10:50:03;1011.1;;;14.8
79148;BMP280;68562;51.600;6.524;2023-12-28T10:55:09;1011.1;;;14.6
79148;BMP280;68562;51.600;6.524;2023-12-28T11:00:05;1011.0;;;14.6
79148;BMP280;68562;51.600;6.524;2023-12-28T11:05:02;1011.1;;;14.5
79148;BMP280;68562;51.600;6.524;2023-12-28T11:10:01;1010.9;;;14.6
79148;BMP280;68562;51.600;6.524;2023-12-28T11:15:01;1010.9;;;14.7
79148;BMP280;68562;51.600;6.524;2023-12-28T11:20:01;1010.8;;;14.9
79148;BMP280;68562;51.600;6.524;2023-12-28T11:25:00;1010.7;;;15.1
79148;BMP280;68562;51.600;6.524;2023-12-28T11:30:00;1010.7;;;15.2
79148;BMP280;68562;51.600;6.524;2023-12-28T11:35:06;1010.7;;;15.2
79148;BMP280;68562;51.600;6.524;2023-12-28T11:40:09;1010.7;;;15.2
79148;BMP280;68562;51.600;6.524;2023-12-28T11:45:00;1010.6;;;15.4
79148;BMP280;68562;51.600;6.524;2023-12-28T11:50:06;1010.6;;;15.5
79148;BMP280;68562;51.600;6.524;2023-12-28T11:55:00;1010.5;;;15.5
79148;BMP280;68562;51.600;6.524;2023-12-28T12:00:01;1010.4;;;15.6
79148;BMP280;68562;51.600;6.524;2023-12-28T12:05:01;1010.5;;;15.6
79148;BMP280;68562;51.600;6.524;2023-12-28T12:10:00;1010.3;;;15.8
79148;BMP280;68562;51.600;6.524;2023-12-28T12:15:00;1010.3;;;15.7
79148;BMP280;68562;51.600;6.524;2023-12-28T12:20:00;1010.2;;;15.6
79148;BMP280;68562;51.600;6.524;2023-12-28T12:25:02;1010.2;;;15.7
79148;BMP280;68562;51.600;6.524;2023-12-28T12:30:00;1010.1;;;15.7
79148;BMP280;68562;51.600;6.524;2023-12-28T12:35:01;1010.1;;;15.6
79148;BMP280;68562;51.600;6.524;2023-12-28T12:40:00;1010.2;;;15.4
79148;BMP280;68562;51.600;6.524;2023-12-28T12:45:00;1010.2;;;15.4
79148;BMP280;68562;51.600;6.524;2023-12-28T12:50:00;1010.1;;;15.5
79148;BMP280;68562;51.600;6.524;2023-12-28T12:55:00;1010.1;;;15.4
79148;BMP280;68562;51.600;6.524;2023-12-28T13:00:00;1010.2;;;15.3
79148;BMP280;68562;51.600;6.524;2023-12-28T13:05:00;1010.0;;;15.2
79148;BMP280;68562;51.600;6.524;2023-12-28T13:10:00;1010.0;;;15.2
79148;BMP280;68562;51.600;6.524;2023-12-28T13:15:00;1009.9;;;15.2
79148;BMP280;68562;51.600;6.524;2023-12-28T13:20:00;1009.9;;;15.2
79148;BMP280;68562;51.600;6.524;2023-12-28T13:25:00;1010.1;;;15.2
79148;BMP280;68562;51.600;6.524;2023-12-28T13:30:00;1010.0;;;15.3
79148;BMP280;68562;51.600;6.524;2023-12-28T13:35:00;1009.9;;;15.3
79148;BMP280;68562;51.600;6.524;2023-12-28T13:40:00;1009.9;;;15.2
79148;BMP280;68562;51.600;6.524;2023-12-28T13:45:00;1009.8;;;15.2
79148;BMP280;68562;51.600;6.524;2023-12-28T13:50:00;1009.8;;;15.2
79148;BMP280;68562;51.600;6.524;2023-12-28T13:55:00;1009.7;;;15.2
79148;BMP280;68562;51.600;6.524;2023-12-28T14:00:00;1009.8;;;15.4
79148;BMP280;68562;51.600;6.524;2023-12-28T14:05:00;1009.9;;;15.5
79148;BMP280;68562;51.600;6.524;2023-12-28T14:10:00;1009.8;;;15.3
79148;BMP280;68562;51.600;6.524;2023-12-28T14:15:00;1009.9;;;15.4
79148;BMP280;68562;51.600;6.524;2023-12-28T14:20:01;1009.9;;;15.5
79148;BMP280;68562;51.600;6.524;2023-12-28T14:25:00;1009.9;;;15.3
79148;BMP280;68562;51.600;6.524;2023-12-28T14:30:00;1009.8;;;15.4
79148;BMP280;68562;51.600;6.524;2023-12-28T14:35:03;1009.9;;;15.4
79148;BMP280;68562;51.600;6.524;2023-12-28T14:40:00;1010.1;;;15.4
79148;BMP280;68562;51.600;6.524;2023-12-28T14:45:00;1009.9;;;15.4
79148;BMP280;68562;51.600;6.524;2023-12-28T14:50:00;1009.9;;;15.3
79148;BMP280;68562;51.600;6.524;2023-12-28T14:55:00;1009.9;;;15.3
79148;BMP280;68562;51.600;6.524;2023-12-28T15:00:00;1009.9;;;15.1
79148;BMP280;68562;51.600;6.524;2023-12-28T15:05:00;1009.8;;;15.2
79148;BMP280;68562;51.600;6.524;2023-12-28T15:10:00;1009.8;;;15.0
79148;BMP280;68562;51.600;6.524;2023-12-28T15:15:00;1009.9;;;15.2
79148;BMP280;68562;51.600;6.524;2023-12-28T15:20:00;1009.8;;;15.1
79148;BMP280;68562;51.600;6.524;2023-12-28T15:25:00;1009.7;;;15.0
79148;BMP280;68562;51.600;6.524;2023-12-28T15:30:00;1009.7;;;14.9
79148;BMP280;68562;51.600;6.524;2023-12-28T15:35:00;1009.7;;;14.8
79148;BMP280;68562;51.600;6.524;2023-12-28T15:40:00;1009.5;;;14.9
79148;BMP280;68562;51.600;6.524;2023-12-28T15:45:00;1009.5;;;15.0
79148;BMP280;68562;51.600;6.524;2023-12-28T15:50:01;1009.5;;;14.7
79148;BMP280;68562;51.600;6.524;2023-12-28T15:55:00;1009.5;;;14.9
79148;BMP280;68562;51.600;6.524;2023-12-28T16:00:00;1009.4;;;14.9
79148;BMP280;68562;51.600;6.524;2023-12-28T16:05:00;1009.4;;;14.8
79148;BMP280;68562;51.600;6.524;2023-12-28T16:10:00;1009.6;;;14.8
79148;BMP280;68562;51.600;6.524;2023-12-28T16:15:01;1009.5;;;14.7
79148;BMP280;68562;51.600;6.524;2023-12-28T16:20:00;1009.4;;;14.7
79148;BMP280;68562;51.600;6.524;2023-12-28T16:25:00;1009.3;;;14.8
79148;BMP280;68562;51.600;6.524;2023-12-28T16:30:00;1009.2;;;14.7
79148;BMP280;68562;51.600;6.524;2023-12-28T16:35:00;1009.3;;;14.8
79148;BMP280;68562;51.600;6.524;2023-12-28T16:40:00;1009.4;;;14.6
79148;BMP280;68562;51.600;6.524;2023-12-28T16:45:00;1009.3;;;14.5
79148;BMP280;68562;51.600;6.524;2023-12-28T16:50:00;1009.3;;;14.6
79148;BMP280;68562;51.600;6.524;2023-12-28T16:55:00;1009.4;;;14.6
79148;BMP280;68562;51.600;6.524;2023-12-28T17:00:00;1009.2;;;14.5
79148;BMP280;68562;51.600;6.524;2023-12-28T17:05:00;1009.3;;;14.4
79148;BMP280;68562;51.600;6.524;2023-12-28T17:10:01;1009.3;;;14.4
79148;BMP280;68562;51.600;6.524;2023-12-28T17:15:01;1009.1;;;14.4
79148;BMP280;68562;51.600;6.524;2023-12-28T17:20:01;1009.2;;;14.4
79148;BMP280;68562;51.600;6.524;2023-12-28T17:25:07;1009.2;;;14.3
79148;BMP280;68562;51.600;6.524;2023-12-28T17:30:01;1009.2;;;14.5
79148;BMP280;68562;51.600;6.524;2023-12-28T17:35:01;1009.2;;;14.4
79148;BMP280;68562;51.600;6.524;2023-12-28T17:40:01;1009.2;;;14.3
79148;BMP280;68562;51.600;6.524;2023-12-28T17:45:01;1009.2;;;14.4
79148;BMP280;68562;51.600;6.524;2023-12-28T17:50:01;1009.1;;;14.4
79148;BMP280;68562;51.600;6.524;2023-12-28T17:55:00;1009.1;;;14.3
79148;BMP280;68562;51.600;6.524;2023-12-28T18:00:01;1009.1;;;14.2
79148;BMP280;68562;51.600;6.524;2023-12-28T18:05:00;1009.2;;;14.3
79148;BMP280;68562;51.600;6.524;2023-12-28T18:10:00;1009.2;;;14.2
79148;BMP280;68562;51.600;6.524;2023-12-28T18:15:00;1009.2;;;14.2
79148;BMP280;68562;51.600;6.524;2023-12-28T18:20:00;1009.2;;;14.3
79148;BMP280;68562;51.600;6.524;2023-12-28T18:25:00;1009.2;;;14.3
79148;BMP280;68562;51.600;6.524;2023-12-28T18:30:00;1009.2;;;14.4
79148;BMP280;68562;51.600;6.524;2023-12-28T18:35:00;1009.3;;;14.3
79148;BMP280;68562;51.600;6.524;2023-12-28T18:40:00;1009.4;;;14.2
79148;BMP280;68562;51.600;6.524;2023-12-28T18:45:00;1009.1;;;14.2
79148;BMP280;68562;51.600;6.524;2023-12-28T18:50:00;1009.1;;;14.2
79148;BMP280;68562;51.600;6.524;2023-12-28T18:55:00;1009.0;;;14.3
79148;BMP280;68562;51.600;6.524;2023-12-28T19:00:00;1009.1;;;14.2
79148;BMP280;68562;51.600;6.524;2023-12-28T19:05:00;1009.1;;;14.2
79148;BMP280;68562;51.600;6.524;2023-12-28T19:10:00;1009.1;;;14.1
79148;BMP280;68562;51.600;6.524;2023-12-28T19:15:01;1008.9;;;14.1
79148;BMP280;68562;51.600;6.524;2023-12-28T19:20:00;1009.1;;;14.0
79148;BMP280;68562;51.600;6.524;2023-12-28T19:25:00;1008.7;;;14.1
79148;BMP280;68562;51.600;6.524;2023-12-28T19:30:00;1008.9;;;14.2
79148;BMP280;68562;51.600;6.524;2023-12-28T19:35:00;1008.9;;;14.2
79148;BMP280;68562;51.600;6.524;2023-12-28T19:40:00;1009.0;;;14.1
79148;BMP280;68562;51.600;6.524;2023-12-28T19:45:01;1008.9;;;14.1
79148;BMP280;68562;51.600;6.524;2023-12-28T19:50:00;1008.9;;;14.0
79148;BMP280;68562;51.600;6.524;2023-12-28T19:55:00;1008.9;;;14.0
79148;BMP280;68562;51.600;6.524;2023-12-28T20:00:01;1008.8;;;14.0
79148;BMP280;68562;51.600;6.524;2023-12-28T20:05:00;1008.7;;;14.1
79148;BMP280;68562;51.600;6.524;2023-12-28T20:10:00;1008.7;;;14.1
79148;BMP280;68562;51.600;6.524;2023-12-28T20:15:00;1008.6;;;14.2
79148;BMP280;68562;51.600;6.524;2023-12-28T20:20:00;1008.5;;;14.1
79148;BMP280;68562;51.600;6.524;2023-12-28T20:25:00;1008.5;;;14.1
79148;BMP280;68562;51.600;6.524;2023-12-28T20:30:00;1008.4;;;14.1
79148;BMP280;68562;51.600;6.524;2023-12-28T20:35:00;1008.5;;;13.9
79148;BMP280;68562;51.600;6.524;2023-12-28T20:40:00;1008.3;;;13.7
79148;BMP280;68562;51.600;6.524;2023-12-28T20:45:01;1008.4;;;13.9
79148;BMP280;68562;51.600;6.524;2023-12-28T20:50:00;1008.3;;;14.1
79148;BMP280;68562;51.600;6.524;2023-12-28T20:55:03;1008.2;;;13.9
79148;BMP280;68562;51.600;6.524;2023-12-28T21:00:00;1008.3;;;13.7
79148;BMP280;68562;51.600;6.524;2023-12-28T21:05:00;1008.3;;;14.0
79148;BMP280;68562;51.600;6.524;2023-12-28T21:10:00;1008.5;;;14.0
79148;BMP280;68562;51.600;6.524;2023-12-28T21:15:00;1008.3;;;14.1
79148;BMP280;68562;51.600;6.524;2023-12-28T21:20:00;1008.2;;;14.1
79148;BMP280;68562;51.600;6.524;2023-12-28T21:25:00;1008.3;;;14.2
79148;BMP280;68562;51.600;6.524;2023-12-28T21:30:00;1008.3;;;14.1
79148;BMP280;68562;51.600;6.524;2023-12-28T21:35:00;1008.4;;;14.1
79148;BMP280;68562;51.600;6.524;2023-12-28T21:40:00;1008.3;;;14.1
79148;BMP280;68562;51.600;6.524;2023-12-28T21:45:03;1008.1;;;14.2
79148;BMP280;68562;51.600;6.524;2023-12-28T21:50:00;1008.2;;;14.0
79148;BMP280;68562;51.600;6.524;2023-12-28T21:55:00;1008.2;;;14.0
79148;BMP280;68562;51.600;6.524;2023-12-28T22:00:01;1008.1;;;13.9
79148;BMP280;68562;51.600;6.524;2023-12-28T22:05:00;1008.1;;;13.9
79148;BMP280;68562;51.600;6.524;2023-12-28T22:10:00;1008.0;;;13.9
79148;BMP280;68562;51.600;6.524;2023-12-28T22:15:00;1007.9;;;13.9
79148;BMP280;68562;51.600;6.524;2023-12-28T22:20:00;1008.0;;;13.9
79148;BMP280;68562;51.600;6.524;2023-12-28T22:25:00;1007.8;;;13.9
79148;BMP280;68562;51.600;6.524;2023-12-28T22:30:01;1007.8;;;13.9
79148;BMP280;68562;51.600;6.524;2023-12-28T22:35:00;1007.9;;;13.9
79148;BMP280;68562;51.600;6.524;2023-12-28T22:40:00;1008.1;;;14.0
79148;BMP280;68562;51.600;6.524;2023-12-28T22:45:00;1007.9;;;14.1
79148;BMP280;68562;51.600;6.524;2023-12-28T22:50:00;1007.9;;;14.0
79148;BMP280;68562;51.600;6.524;2023-12-28T22:55:00;1007.7;;;13.9
79148;BMP280;68562;51.600;6.524;2023-12-28T23:00:00;1007.7;;;14.0
79148;BMP280;68562;51.600;6.524;2023-12-28T23:05:00;1007.7;;;13.9
79148;BMP280;68562;51.600;6.524;2023-12-28T23:10:00;1007.6;;;13.9
79148;BMP280;68562;51.600;6.524;2023-12-28T23:15:01;1007.6;;;14.1
79148;BMP280;68562;51.600;6.524;2023-12-28T23:20:00;1007.4;;;14.2
79148;BMP280;68562;51.600;6.524;2023-12-28T23:25:00;1007.5;;;14.2
79148;BMP280;68562;51.600;6.524;2023-12-28T23:30:00;1007.4;;;14.1
79148;BMP280;68562;51.600;6.524;2023-12-28T23:35:00;1007.3;;;14.1
79148;BMP280;68562;51.600;6.524;2023-12-28T23:40:00;1007.4;;;14.1
79148;BMP280;68562;51.600;6.524;2023-12-28T23:45:00;1007.5;;;14.0
79148;BMP280;68562;51.600;6.524;2023-12-28T23:50:00;1007.6;;;14.0
79148;BMP280;68562;51.600;6.524;2023-12-28T23:55:00;1007.6;;;14.2
